메인 페이지
METAR-TAF:

METAR-TAF

공항 :

Islip, 뉴욕, 미국

위도: 40-47-38N, 경도: 073-06-06W, 고도: 30m

현재 날씨관측

예보는 47분 전, 22:56시(UTC)에 발표되었습니다.
서북서16kt, 순간 최대 풍속 24kt
온도 -1°C
습도 31%
기압 1020 hPa
시정: 16.1km
맑음

METAR: KISP 022256Z 30016G24KT 10SM CLR M01/M16 A3012 RMK AO2 SLP200 T10111161

시각: 18:43 (23:43 UTC)

예보

예보는 22분 전, 23:21시(UTC)에 발표되었습니다.
예보 대상 시간: 03일 00시부터 03일 24시까지 (UTC)
서북서14kt, 순간 최대 풍속 23kt
시정: 10km
맑음
03일 0100시부터 (UTC)
9kt
시정: 10km
맑음
03일 0300시부터 (UTC)
8kt
시정: 10km
고도 25000ft 상공 구름 조금
03일 0600시부터 (UTC)
서남서6kt
시정: 10km
고도 25000ft 상공 구름 조금
03일 1200시부터 (UTC)
12kt, 순간 최대 풍속 20kt
시정: 10km
고도 25000ft 상공 구름 조금
03일 1800시부터 (UTC)
12kt
시정: 10km
고도 25000ft 상공 구름 보통

TAF: KISP 022321Z 0300/0324 29014G23KT P6SM SKC FM030100 28009KT P6SM SKC FM030300 27008KT P6SM FEW250 FM030600 24006KT P6SM FEW250 FM031200 26012G20KT P6SM FEW250 FM031800 27012KT P6SM SCT250

4,000개 이상의 공항 관측 자료 및 예보 (METAR 및 TAF 보고).

지도상에서 검색 가능한 기상관측소가 노란 점과 빨간 점으로 표시되어 있습니다.

기상관측소 명을 보려면 표시 위로 마우스를 이동하세요.

날씨 관측과 예보를 보려면 클릭하세요.

지도 변경 : 확대하려면 엑스 표시가 있는 녹색 버튼, 축소하려면 빼기 표시가 있는 녹색 버튼, 다음 페이지의 지도를 보려면 녹색 화살표를 클릭하세요.


METAR-TAF: